createdAt,value
2022-11-14T00:01:09.167Z,464.15
2022-11-14T00:02:31.953Z,359.73
2022-11-14T00:03:54.049Z,404.13
2022-11-14T00:05:16.610Z,417.58
2022-11-14T00:06:38.906Z,379.63
2022-11-14T00:08:00.352Z,360.10
2022-11-14T00:09:26.701Z,337.42
2022-11-14T00:10:49.572Z,284.05
2022-11-14T00:12:12.811Z,366.85
2022-11-14T00:13:35.088Z,362.42
2022-11-14T00:14:56.581Z,308.48
2022-11-14T00:16:18.930Z,310.30
2022-11-14T00:18:14.989Z,403.10
2022-11-14T00:19:36.109Z,338.42
2022-11-14T00:20:58.307Z,394.23
2022-11-14T00:22:19.528Z,373.98
2022-11-14T00:23:41.720Z,200.95
2022-11-14T00:25:02.890Z,298.23
2022-11-14T00:26:25.156Z,342.92
2022-11-14T00:27:47.762Z,334.52
2022-11-14T00:29:12.371Z,373.23
2022-11-14T00:30:34.821Z,438.38
2022-11-14T00:31:57.129Z,389.88
2022-11-14T00:33:21.425Z,373.67
2022-11-14T00:34:43.909Z,431.73
2022-11-14T00:36:06.863Z,332.67
2022-11-14T00:37:28.257Z,283.45
2022-11-14T00:38:54.241Z,346.20
2022-11-14T00:40:16.480Z,406.45
2022-11-14T00:41:38.840Z,273.73
2022-11-14T00:43:02.798Z,385.95
2022-11-14T00:44:25.249Z,333.67
2022-11-14T00:45:48.288Z,364.52
2022-11-14T00:47:10.549Z,420.65
2022-11-14T00:48:32.027Z,410.35
2022-11-14T00:49:54.506Z,427.85
2022-11-14T00:51:16.901Z,417.95
2022-11-14T00:52:39.288Z,436.98
2022-11-14T00:54:01.605Z,434.52
2022-11-14T00:55:24.068Z,367.95
2022-11-14T00:56:45.428Z,433.08
2022-11-14T00:58:09.040Z,378.95
2022-11-14T00:59:30.522Z,345.75
2022-11-14T01:00:53.494Z,327.63
2022-11-14T01:02:15.943Z,441.67
2022-11-14T01:03:38.200Z,440.80
2022-11-14T01:05:00.804Z,404.65
2022-11-14T01:06:21.891Z,481.38
2022-11-14T01:07:44.088Z,500.08
2022-11-14T01:09:06.282Z,504.48
2022-11-14T01:10:27.636Z,520.15
2022-11-14T01:11:49.760Z,497.38
2022-11-14T01:13:14.198Z,449.83
2022-11-14T01:14:36.416Z,457.25
2022-11-14T01:16:02.261Z,500.02
2022-11-14T01:17:23.328Z,494.25
2022-11-14T01:18:45.400Z,483.60
2022-11-14T01:20:07.157Z,528.05
2022-11-14T01:21:29.279Z,487.65
2022-11-14T01:22:51.759Z,498.38
2022-11-14T01:24:12.929Z,498.63
2022-11-14T01:25:35.202Z,510.10
2022-11-14T01:26:57.839Z,510.83
2022-11-14T01:28:21.787Z,506.10
2022-11-14T01:29:43.159Z,545.65
2022-11-14T01:31:12.709Z,505.55
2022-11-14T01:32:35.141Z,515.25
2022-11-14T01:33:57.561Z,452.17
2022-11-14T01:35:19.192Z,449.98
2022-11-14T01:36:41.699Z,440.10
2022-11-14T01:38:02.891Z,417.55
2022-11-14T01:39:25.571Z,452.52
2022-11-14T01:40:47.920Z,472.40
2022-11-14T01:42:09.059Z,442.48
2022-11-14T01:43:34.240Z,453.17
2022-11-14T01:44:56.712Z,485.55
2022-11-14T01:46:23.297Z,388.58
2022-11-14T01:47:45.419Z,362.08
2022-11-14T01:49:15.416Z,375.38
2022-11-14T01:50:36.503Z,337.17
2022-11-14T01:52:02.797Z,382.40
2022-11-14T01:53:25.434Z,345.70
2022-11-14T01:54:50.081Z,374.65
2022-11-14T01:56:13.566Z,375.75
2022-11-14T01:57:38.007Z,415.52
2022-11-14T01:59:05.148Z,392.13
2022-11-14T02:00:26.517Z,425.50
2022-11-14T02:01:51.343Z,290.23
2022-11-14T02:03:14.311Z,355.40
2022-11-14T02:04:39.292Z,306.75
2022-11-14T02:06:01.128Z,386.17
2022-11-14T02:07:24.560Z,327.85
2022-11-14T02:08:45.937Z,359.58
2022-11-14T02:10:11.315Z,348.92
2022-11-14T02:11:37.961Z,341.30
2022-11-14T02:12:59.289Z,350.23
2022-11-14T02:14:23.319Z,320.85
2022-11-14T02:15:45.900Z,308.02
2022-11-14T02:17:28.390Z,337.95
2022-11-14T02:18:50.930Z,335.98
2022-11-14T02:20:22.220Z,337.55
2022-11-14T02:21:44.431Z,342.60
2022-11-14T02:23:05.699Z,279.20
2022-11-14T02:24:28.050Z,310.98
2022-11-14T02:25:49.430Z,288.83
2022-11-14T02:27:11.982Z,350.98
2022-11-14T02:28:34.152Z,310.20
2022-11-14T02:29:56.398Z,325.10
2022-11-14T02:31:18.958Z,311.52
2022-11-14T02:34:23.261Z,294.33
2022-11-14T02:35:47.720Z,303.55
2022-11-14T02:37:09.070Z,315.10
2022-11-14T02:38:31.963Z,302.80
2022-11-14T02:39:53.635Z,337.73
2022-11-14T02:41:16.739Z,284.90
2022-11-14T02:42:38.316Z,249.82
2022-11-14T02:44:00.459Z,300.55
2022-11-14T02:45:21.597Z,316.35
2022-11-14T02:46:43.837Z,253.40
2022-11-14T02:48:07.276Z,266.25
2022-11-14T02:49:29.418Z,245.30
2022-11-14T02:50:53.361Z,296.25
2022-11-14T02:52:14.381Z,269.90
2022-11-14T02:53:36.808Z,233.00
2022-11-14T02:54:58.019Z,256.10
2022-11-14T02:56:21.206Z,336.92
2022-11-14T02:57:42.846Z,152.30
2022-11-14T02:59:05.313Z,255.80
2022-11-14T03:00:28.297Z,186.40
2022-11-14T03:01:49.693Z,151.75
2022-11-14T03:03:11.844Z,221.05
2022-11-14T03:04:33.272Z,237.70
2022-11-14T03:06:01.947Z,266.00
2022-11-14T03:07:23.123Z,183.05
2022-11-14T03:08:45.597Z,237.50
2022-11-14T03:10:08.177Z,265.88
2022-11-14T03:11:33.599Z,248.40
2022-11-14T03:12:56.272Z,161.48
2022-11-14T03:14:18.778Z,195.05
2022-11-14T03:15:41.263Z,176.95
2022-11-14T03:17:02.788Z,197.82
2022-11-14T03:18:25.435Z,199.55
2022-11-14T03:19:47.941Z,157.10
2022-11-14T03:21:12.139Z,182.95
2022-11-14T03:22:34.470Z,159.85
2022-11-14T03:23:56.811Z,206.90
2022-11-14T03:25:19.453Z,149.15
2022-11-14T03:26:40.759Z,133.35
2022-11-14T03:28:02.787Z,149.60
2022-11-14T03:29:24.068Z,154.20
2022-11-14T03:30:48.001Z,175.10
2022-11-14T03:32:09.138Z,134.88
2022-11-14T03:33:31.527Z,142.65
2022-11-14T03:34:53.671Z,153.95
2022-11-14T03:36:16.548Z,117.03
2022-11-14T03:37:40.120Z,171.02
2022-11-14T03:39:11.262Z,159.15
2022-11-14T03:40:32.639Z,125.05
2022-11-14T03:41:54.801Z,172.65
2022-11-14T03:43:16.308Z,122.70
2022-11-14T03:44:38.872Z,162.10
2022-11-14T03:46:00.554Z,160.32
2022-11-14T03:47:22.643Z,115.47
2022-11-14T03:48:44.177Z,133.00
2022-11-14T03:50:07.636Z,117.65
2022-11-14T03:51:29.036Z,102.45
2022-11-14T03:52:51.489Z,109.78
2022-11-14T03:54:15.340Z,118.60
2022-11-14T03:55:37.128Z,123.40
2022-11-14T03:56:59.460Z,122.50
2022-11-14T03:58:21.044Z,131.93
2022-11-14T03:59:43.240Z,115.45
2022-11-14T04:01:05.793Z,107.85
2022-11-14T04:02:28.031Z,106.10
2022-11-14T04:03:50.109Z,119.75
2022-11-14T04:05:11.568Z,114.78
2022-11-14T04:06:36.410Z,105.68
2022-11-14T04:07:57.671Z,96.13
2022-11-14T04:09:21.512Z,114.20
2022-11-14T04:10:43.519Z,134.45
2022-11-14T04:12:10.064Z,153.30
2022-11-14T04:13:35.578Z,120.95
2022-11-14T04:14:58.479Z,143.18
2022-11-14T04:16:21.169Z,162.02
2022-11-14T04:17:42.618Z,151.40
2022-11-14T04:19:05.513Z,133.52
2022-11-14T04:20:27.699Z,136.38
2022-11-14T04:21:50.128Z,151.82
2022-11-14T04:23:11.516Z,143.00
2022-11-14T04:24:35.290Z,161.75
2022-11-14T04:25:57.085Z,133.38
2022-11-14T04:27:19.702Z,132.50
2022-11-14T04:28:41.784Z,145.23
2022-11-14T04:30:04.372Z,166.63
2022-11-14T04:31:27.028Z,204.27
2022-11-14T04:32:49.409Z,178.02
2022-11-14T04:34:12.111Z,203.00
2022-11-14T04:35:33.582Z,163.15
2022-11-14T04:36:55.900Z,221.38
2022-11-14T04:38:18.508Z,211.80
2022-11-14T04:39:42.052Z,234.40
2022-11-14T04:41:04.509Z,222.43
2022-11-14T04:42:26.492Z,199.20
2022-11-14T04:43:50.927Z,247.48
2022-11-14T04:45:13.901Z,217.98
2022-11-14T04:46:36.674Z,188.05
2022-11-14T04:47:57.850Z,184.98
2022-11-14T04:49:21.478Z,190.18
2022-11-14T04:50:43.641Z,235.00
2022-11-14T04:52:05.943Z,202.98
2022-11-14T04:53:28.320Z,190.52
2022-11-14T04:54:53.659Z,237.85
2022-11-14T04:56:16.062Z,178.55
2022-11-14T04:57:39.132Z,215.35
2022-11-14T04:59:00.793Z,172.18
2022-11-14T05:00:23.282Z,201.07
2022-11-14T05:01:45.753Z,205.85
2022-11-14T05:03:07.101Z,216.20
2022-11-14T05:04:29.594Z,232.57
2022-11-14T05:05:51.016Z,222.07
2022-11-14T05:07:13.858Z,244.95
2022-11-14T05:08:36.689Z,219.48
2022-11-14T05:10:01.044Z,229.20
2022-11-14T05:11:28.087Z,243.63
2022-11-14T05:12:54.929Z,205.02
2022-11-14T05:14:17.204Z,249.32
2022-11-14T05:15:38.376Z,222.65
2022-11-14T05:17:01.430Z,234.32
2022-11-14T05:18:23.979Z,249.75
2022-11-14T05:19:46.845Z,262.20
2022-11-14T05:21:11.921Z,279.10
2022-11-14T05:22:34.682Z,249.15
2022-11-14T05:23:55.875Z,324.17
2022-11-14T05:25:19.910Z,297.35
2022-11-14T05:26:42.500Z,375.55
2022-11-14T05:28:04.835Z,380.90
2022-11-14T05:29:26.316Z,369.83
2022-11-14T05:30:48.413Z,341.65
2022-11-14T05:32:15.062Z,321.10
2022-11-14T05:33:38.460Z,277.75
2022-11-14T05:35:00.639Z,281.45
2022-11-14T05:36:23.431Z,314.90
2022-11-14T05:37:45.730Z,352.83
2022-11-14T05:39:07.896Z,365.52
2022-11-14T05:40:31.530Z,364.23
2022-11-14T05:41:53.959Z,388.52
2022-11-14T05:43:16.451Z,323.02
2022-11-14T05:44:38.688Z,349.17
2022-11-14T05:46:01.128Z,382.27
2022-11-14T05:47:23.412Z,359.67
2022-11-14T05:48:46.193Z,384.42
2022-11-14T05:50:09.351Z,378.20
2022-11-14T05:51:31.620Z,347.20
2022-11-14T05:52:53.959Z,400.65
2022-11-14T05:54:16.499Z,465.10
2022-11-14T05:55:40.390Z,445.25
2022-11-14T05:57:02.749Z,475.67
2022-11-14T05:58:25.230Z,569.75
2022-11-14T05:59:47.769Z,567.83
2022-11-14T06:01:11.598Z,509.35
2022-11-14T06:02:34.179Z,547.13
2022-11-14T06:03:56.723Z,522.47
2022-11-14T06:05:18.954Z,516.38
2022-11-14T06:06:40.421Z,529.72
2022-11-14T06:08:02.902Z,491.35
2022-11-14T06:09:25.211Z,468.27
2022-11-14T06:10:48.825Z,534.45
2022-11-14T06:12:11.049Z,509.23
2022-11-14T06:13:33.982Z,510.20
2022-11-14T06:14:56.436Z,501.63
2022-11-14T06:16:20.173Z,554.05
2022-11-14T06:17:42.381Z,549.78
2022-11-14T06:19:05.570Z,492.45
2022-11-14T06:20:28.291Z,490.05
2022-11-14T06:21:50.742Z,497.05
2022-11-14T06:23:13.442Z,565.90
2022-11-14T06:24:35.622Z,509.08
2022-11-14T06:26:01.639Z,529.88
2022-11-14T06:27:23.868Z,524.60
2022-11-14T06:28:45.193Z,600.45
2022-11-14T06:30:08.161Z,547.88
2022-11-14T06:31:30.729Z,526.90
2022-11-14T06:32:58.653Z,438.27
2022-11-14T06:34:24.182Z,494.85
2022-11-14T06:35:46.612Z,468.25
2022-11-14T06:37:09.046Z,487.17
2022-11-14T06:38:33.204Z,445.98
2022-11-14T06:39:55.963Z,385.20
2022-11-14T06:41:20.875Z,324.10
2022-11-14T06:42:42.064Z,403.25
2022-11-14T06:44:04.113Z,456.75
2022-11-14T06:45:26.502Z,439.83
2022-11-14T06:46:48.910Z,382.30
2022-11-14T06:48:11.174Z,253.32
2022-11-14T06:49:37.909Z,227.23
2022-11-14T06:51:04.010Z,265.35
2022-11-14T06:52:26.792Z,246.02
2022-11-14T06:53:49.177Z,224.30
2022-11-14T06:55:11.374Z,233.45
2022-11-14T06:56:35.649Z,223.63
2022-11-14T06:57:56.812Z,258.73
2022-11-14T06:59:19.367Z,158.68
2022-11-14T07:00:40.670Z,176.93
2022-11-14T07:02:02.948Z,172.38
2022-11-14T07:03:25.636Z,203.40
2022-11-14T07:04:47.921Z,162.02
2022-11-14T07:06:10.851Z,204.07
2022-11-14T07:07:34.294Z,193.95
2022-11-14T07:08:57.312Z,150.50
2022-11-14T07:10:19.578Z,134.40
2022-11-14T07:11:45.570Z,71.07
2022-11-14T07:13:09.749Z,73.88
2022-11-14T07:14:32.200Z,86.85
2022-11-14T07:15:55.155Z,72.03
2022-11-14T07:17:17.533Z,97.45
2022-11-14T07:18:40.090Z,103.90
2022-11-14T07:20:02.332Z,125.55
2022-11-14T07:21:24.547Z,114.60
2022-11-14T07:22:46.719Z,130.40
2022-11-14T07:24:09.319Z,126.88
2022-11-14T07:25:31.511Z,135.20
2022-11-14T07:26:55.513Z,137.45
2022-11-14T07:28:17.861Z,134.77
2022-11-14T07:29:40.277Z,144.70
2022-11-14T07:31:04.659Z,158.75
2022-11-14T07:32:27.046Z,152.77
2022-11-14T07:33:49.661Z,128.27
2022-11-14T07:35:11.831Z,138.82
2022-11-14T07:36:33.999Z,173.93
2022-11-14T07:38:05.762Z,124.38
2022-11-14T07:39:28.439Z,153.13
2022-11-14T07:40:59.874Z,217.63
2022-11-14T07:42:23.990Z,192.15
2022-11-14T07:43:46.345Z,156.77
2022-11-14T07:45:09.778Z,116.85
2022-11-14T07:46:31.951Z,152.77
2022-11-14T07:47:56.962Z,143.95
2022-11-14T07:49:19.188Z,140.63
2022-11-14T07:50:41.562Z,187.98
2022-11-14T07:52:03.790Z,128.60
2022-11-14T07:53:26.190Z,122.53
2022-11-14T07:54:48.769Z,82.03
2022-11-14T07:56:11.463Z,90.50
2022-11-14T07:57:40.328Z,63.60
2022-11-14T07:59:04.159Z,68.72
2022-11-14T08:00:25.640Z,65.35
2022-11-14T08:01:48.172Z,94.85
2022-11-14T08:03:11.136Z,128.32
2022-11-14T08:04:33.304Z,80.20
2022-11-14T08:06:02.161Z,66.28
2022-11-14T08:07:24.652Z,56.17
2022-11-14T08:08:47.080Z,50.38
2022-11-14T08:10:11.570Z,59.28
2022-11-14T08:11:49.311Z,36.05
2022-11-14T08:14:55.834Z,37.92
2022-11-14T08:16:18.350Z,29.23
2022-11-14T08:17:40.862Z,24.85
2022-11-14T08:19:03.299Z,43.67
2022-11-14T08:20:26.443Z,27.60
2022-11-14T08:21:48.632Z,25.13
2022-11-14T08:23:11.729Z,31.90
2022-11-14T08:24:33.853Z,37.72
2022-11-14T08:25:56.410Z,35.35
2022-11-14T08:27:18.890Z,34.38
2022-11-14T08:28:42.530Z,30.48
2022-11-14T08:30:05.091Z,29.95
2022-11-14T08:31:27.429Z,28.65
2022-11-14T08:32:50.000Z,29.92
2022-11-14T08:34:12.474Z,32.13
2022-11-14T08:35:35.041Z,25.95
2022-11-14T08:36:58.539Z,30.38
2022-11-14T08:38:20.942Z,25.02
2022-11-14T08:39:43.508Z,32.33
2022-11-14T08:41:07.037Z,26.40
2022-11-14T08:42:29.339Z,18.95
2022-11-14T08:43:53.342Z,28.10
2022-11-14T08:45:15.868Z,19.85
2022-11-14T08:46:38.047Z,23.92
2022-11-14T08:48:00.486Z,22.17
2022-11-14T08:49:23.073Z,21.33
2022-11-14T08:50:45.532Z,21.63
2022-11-14T08:52:12.328Z,33.40
2022-11-14T08:53:37.731Z,29.05
2022-11-14T08:55:00.460Z,24.60
2022-11-14T08:56:24.227Z,24.70
2022-11-14T08:57:49.444Z,28.35
2022-11-14T08:59:14.019Z,22.90
2022-11-14T09:00:36.001Z,23.90
2022-11-14T09:01:58.468Z,24.58
2022-11-14T09:03:20.685Z,20.75
2022-11-14T09:04:43.046Z,21.15
2022-11-14T09:06:05.461Z,26.00
2022-11-14T09:07:29.247Z,28.00
2022-11-14T09:08:51.691Z,28.63
2022-11-14T09:10:13.996Z,29.45
2022-11-14T09:11:36.799Z,41.13
2022-11-14T09:13:00.418Z,30.48
2022-11-14T09:14:24.480Z,40.25
2022-11-14T09:15:47.071Z,26.00
2022-11-14T09:17:09.608Z,21.48
2022-11-14T09:18:33.102Z,21.63
2022-11-14T09:19:56.081Z,15.38
2022-11-14T09:21:18.478Z,19.25
2022-11-14T09:22:41.402Z,22.85
2022-11-14T09:24:04.033Z,18.15
2022-11-14T09:25:27.781Z,16.05
2022-11-14T09:26:55.201Z,20.65
2022-11-14T09:28:18.965Z,14.45
2022-11-14T09:29:42.872Z,17.38
2022-11-14T09:31:07.243Z,13.63
2022-11-14T09:32:29.871Z,16.45
2022-11-14T09:33:52.298Z,17.40
2022-11-14T09:35:15.180Z,16.23
2022-11-14T09:36:37.533Z,15.15
2022-11-14T09:38:03.550Z,14.02
2022-11-14T09:39:25.923Z,14.20
2022-11-14T09:41:03.541Z,16.95
2022-11-14T09:42:36.710Z,19.00
2022-11-14T09:44:17.758Z,16.30
2022-11-14T09:45:48.630Z,13.77
2022-11-14T09:47:18.082Z,15.23
2022-11-14T09:48:42.849Z,21.45
2022-11-14T09:50:09.167Z,16.08
2022-11-14T09:51:33.388Z,22.88
2022-11-14T09:52:58.151Z,15.77
2022-11-14T09:54:23.325Z,14.32
2022-11-14T09:55:45.751Z,11.43
2022-11-14T09:57:16.121Z,13.90
2022-11-14T09:58:38.161Z,14.65
2022-11-14T10:00:00.398Z,12.52
2022-11-14T10:01:32.550Z,12.35
2022-11-14T10:03:05.130Z,10.88
2022-11-14T10:04:38.860Z,27.02
2022-11-14T10:06:23.724Z,16.95
2022-11-14T10:07:54.877Z,15.15
2022-11-14T10:09:43.379Z,10.55
2022-11-14T10:11:10.288Z,12.82
2022-11-14T10:12:38.183Z,11.10
2022-11-14T10:14:18.737Z,9.27
2022-11-14T10:15:45.741Z,12.48
2022-11-14T10:17:20.540Z,14.93
2022-11-14T10:18:56.068Z,10.35
2022-11-14T10:20:23.793Z,19.33
2022-11-14T10:21:55.596Z,10.02
2022-11-14T10:23:27.578Z,11.57
2022-11-14T10:25:05.478Z,11.68
2022-11-14T10:26:34.350Z,10.27
2022-11-14T10:28:07.657Z,12.20
2022-11-14T10:29:44.519Z,11.00
2022-11-14T10:31:09.909Z,10.63
2022-11-14T10:32:46.462Z,17.92
2022-11-14T10:34:12.711Z,10.25
2022-11-14T10:35:39.088Z,12.27
2022-11-14T10:37:04.929Z,9.00
2022-11-14T10:38:30.128Z,9.75
2022-11-14T10:39:53.986Z,9.55
2022-11-14T10:41:34.517Z,10.45
2022-11-14T10:43:02.636Z,12.30
2022-11-14T10:44:30.072Z,8.02
2022-11-14T10:45:55.247Z,10.57
2022-11-14T10:47:20.329Z,8.93
2022-11-14T10:48:47.292Z,10.23
2022-11-14T10:50:20.459Z,12.85
2022-11-14T10:51:45.292Z,10.75
2022-11-14T10:53:15.819Z,10.73
2022-11-14T10:54:42.204Z,10.27
2022-11-14T10:56:05.489Z,11.10
2022-11-14T10:57:30.086Z,12.38
2022-11-14T10:58:52.623Z,16.77
2022-11-14T11:00:17.845Z,8.90
2022-11-14T11:01:41.452Z,10.57
2022-11-14T11:03:03.561Z,15.38
2022-11-14T11:04:31.789Z,10.68
2022-11-14T11:05:57.935Z,13.73
2022-11-14T11:07:42.539Z,12.63
2022-11-14T11:09:27.174Z,12.70
2022-11-14T11:11:06.768Z,13.82
2022-11-14T11:12:43.875Z,11.30
2022-11-14T11:14:06.393Z,12.40
2022-11-14T11:15:32.458Z,13.32
2022-11-14T11:17:10.259Z,16.52
2022-11-14T11:18:33.721Z,17.70
2022-11-14T11:20:00.918Z,12.68
2022-11-14T11:21:26.348Z,12.15
2022-11-14T11:22:48.871Z,10.07
2022-11-14T11:24:11.123Z,13.80
2022-11-14T11:25:34.438Z,15.35
2022-11-14T11:27:14.514Z,13.20
2022-11-14T11:28:37.806Z,15.90
2022-11-14T11:30:19.123Z,19.40
2022-11-14T11:31:54.783Z,13.55
2022-11-14T11:33:23.321Z,20.63
2022-11-14T11:34:45.645Z,15.73
2022-11-14T11:36:15.320Z,14.13
2022-11-14T11:37:41.299Z,28.27
2022-11-14T11:39:03.718Z,14.75
2022-11-14T11:40:28.329Z,17.27
2022-11-14T11:43:40.231Z,20.05
2022-11-14T11:45:07.500Z,19.90
2022-11-14T11:46:46.702Z,15.73
2022-11-14T11:48:17.152Z,15.38
2022-11-14T11:49:50.121Z,13.38
2022-11-14T11:51:19.058Z,17.02
2022-11-14T11:52:45.828Z,18.55
2022-11-14T11:54:15.410Z,13.43
2022-11-14T11:55:41.379Z,14.18
2022-11-14T11:57:05.790Z,15.02
2022-11-14T11:58:31.448Z,14.10
2022-11-14T11:59:59.049Z,15.98
2022-11-14T12:01:21.158Z,14.20
2022-11-14T12:02:50.097Z,18.88
2022-11-14T12:04:12.939Z,13.10
2022-11-14T12:05:44.850Z,13.38
2022-11-14T12:07:15.498Z,12.30
2022-11-14T12:08:45.406Z,18.08
2022-11-14T12:10:14.599Z,14.38
2022-11-14T12:11:39.419Z,10.90
2022-11-14T12:13:43.810Z,10.80
2022-11-14T12:15:12.958Z,11.95
2022-11-14T12:17:02.726Z,13.45
2022-11-14T12:18:37.160Z,8.95
2022-11-14T12:20:14.048Z,10.50
2022-11-14T12:21:58.407Z,12.57
2022-11-14T12:23:53.948Z,11.60
2022-11-14T12:25:36.038Z,10.63
2022-11-14T12:27:06.532Z,16.70
2022-11-14T12:28:41.922Z,19.50
2022-11-14T12:30:13.648Z,14.10
2022-11-14T12:31:38.311Z,13.57
2022-11-14T12:33:03.567Z,16.55
2022-11-14T12:34:29.189Z,13.57
2022-11-14T12:35:53.219Z,15.98
2022-11-14T12:37:18.321Z,10.63
2022-11-14T12:38:44.832Z,12.55
2022-11-14T12:40:09.508Z,19.10
2022-11-14T12:41:35.348Z,11.52
2022-11-14T12:42:58.254Z,15.45
2022-11-14T12:44:33.358Z,19.58
2022-11-14T12:46:02.765Z,15.38
2022-11-14T12:47:28.271Z,14.13
2022-11-14T12:48:50.790Z,11.95
2022-11-14T12:50:31.509Z,18.42
2022-11-14T12:51:53.917Z,13.95
2022-11-14T12:53:46.801Z,11.60
2022-11-14T12:55:47.853Z,11.65
2022-11-14T12:57:38.158Z,13.85
2022-11-14T12:59:29.269Z,11.90
2022-11-14T13:01:05.235Z,13.10
2022-11-14T13:03:14.524Z,12.45
2022-11-14T13:04:45.050Z,13.40
2022-11-14T13:06:10.236Z,11.82
2022-11-14T13:07:40.517Z,15.32
2022-11-14T13:09:34.865Z,15.13
2022-11-14T13:10:57.467Z,12.70
2022-11-14T13:12:49.698Z,11.23
2022-11-14T13:14:29.612Z,13.02
2022-11-14T13:16:10.732Z,11.27
2022-11-14T13:17:50.328Z,13.50
2022-11-14T13:19:37.522Z,13.32
2022-11-14T13:21:20.852Z,13.73
2022-11-14T13:22:44.065Z,11.38
2022-11-14T13:24:07.177Z,12.40
2022-11-14T13:25:29.498Z,11.40
2022-11-14T13:26:53.753Z,12.10
2022-11-14T13:28:49.070Z,11.77
2022-11-14T13:30:11.344Z,14.80
2022-11-14T13:31:48.901Z,13.38
2022-11-14T13:33:11.279Z,13.07
2022-11-14T13:34:43.663Z,12.63
2022-11-14T13:36:06.826Z,14.13
2022-11-14T13:37:41.557Z,12.65
2022-11-14T13:39:23.914Z,12.88
2022-11-14T13:40:49.430Z,13.63
2022-11-14T13:42:28.358Z,13.65
2022-11-14T13:44:04.348Z,12.43
2022-11-14T13:45:44.875Z,14.32
2022-11-14T13:47:20.508Z,12.45
2022-11-14T13:49:08.586Z,13.30
2022-11-14T13:50:32.408Z,14.77
2022-11-14T13:51:55.552Z,17.10
2022-11-14T13:53:20.229Z,16.67
2022-11-14T13:54:47.819Z,14.70
2022-11-14T13:56:17.901Z,18.98
2022-11-14T13:57:47.290Z,16.92
2022-11-14T13:59:37.137Z,14.35
2022-11-14T14:01:10.488Z,11.60
2022-11-14T14:02:59.360Z,14.93
2022-11-14T14:04:38.122Z,15.68
2022-11-14T14:06:12.185Z,14.82
2022-11-14T14:07:43.843Z,14.68
2022-11-14T14:09:24.468Z,14.75
2022-11-14T14:10:56.220Z,17.20
2022-11-14T14:12:33.191Z,19.75
2022-11-14T14:14:01.280Z,22.63
2022-11-14T14:15:29.311Z,17.35
2022-11-14T14:16:56.868Z,14.75
2022-11-14T14:18:28.710Z,15.32
2022-11-14T14:20:01.616Z,18.30
2022-11-14T14:21:35.893Z,33.80
2022-11-14T14:23:04.089Z,16.48
2022-11-14T14:24:37.332Z,16.60
2022-11-14T14:26:06.783Z,17.48
2022-11-14T14:27:33.617Z,17.30
2022-11-14T14:29:06.095Z,20.42
2022-11-14T14:30:30.208Z,17.08
2022-11-14T14:31:53.150Z,20.38
2022-11-14T14:33:16.528Z,19.08
2022-11-14T14:34:39.751Z,21.05
2022-11-14T14:36:01.976Z,19.58
2022-11-14T14:37:25.795Z,21.10
2022-11-14T14:38:48.845Z,17.88
2022-11-14T14:40:25.285Z,18.90
2022-11-14T14:41:47.971Z,18.30
2022-11-14T14:43:22.323Z,18.85
2022-11-14T14:44:47.767Z,18.05
2022-11-14T14:46:11.319Z,22.70
2022-11-14T14:47:41.342Z,21.63
2022-11-14T14:49:05.120Z,24.38
2022-11-14T14:50:30.614Z,20.65
2022-11-14T14:51:58.088Z,21.75
2022-11-14T14:53:22.136Z,23.98
2022-11-14T14:54:55.766Z,23.20
2022-11-14T14:56:22.380Z,23.27
2022-11-14T14:57:45.047Z,23.85
2022-11-14T14:59:20.936Z,24.33
2022-11-14T15:00:53.004Z,24.33
2022-11-14T15:02:18.980Z,23.50
2022-11-14T15:03:43.271Z,26.33
2022-11-14T15:05:06.044Z,28.55
2022-11-14T15:06:33.402Z,24.20
2022-11-14T15:07:58.131Z,25.85
2022-11-14T15:09:23.378Z,30.65
2022-11-14T15:10:46.411Z,28.50
2022-11-14T15:12:09.039Z,32.22
2022-11-14T15:13:32.453Z,29.15
2022-11-14T15:14:55.261Z,30.38
2022-11-14T15:16:17.859Z,29.02
2022-11-14T15:17:41.952Z,33.25
2022-11-14T15:19:04.410Z,37.15
2022-11-14T15:20:28.539Z,36.00
2022-11-14T15:22:17.960Z,32.72
2022-11-14T15:23:40.851Z,30.73
2022-11-14T15:25:08.492Z,35.45
2022-11-14T15:26:32.100Z,35.03
2022-11-14T15:27:55.888Z,34.80
2022-11-14T15:29:19.856Z,37.25
2022-11-14T15:30:42.201Z,37.45
2022-11-14T15:32:06.212Z,40.05
2022-11-14T15:33:31.259Z,41.30
2022-11-14T15:35:09.843Z,40.13
2022-11-14T15:36:32.341Z,37.90
2022-11-14T15:38:41.840Z,41.00
2022-11-14T15:39:50.674Z,37.47
2022-11-14T15:41:23.389Z,43.97
2022-11-14T15:42:45.701Z,39.78
2022-11-14T15:44:16.252Z,35.95
2022-11-14T15:45:41.672Z,37.45
2022-11-14T15:47:04.836Z,39.90
2022-11-14T15:48:28.549Z,44.17
2022-11-14T15:49:59.890Z,37.75
2022-11-14T15:51:43.461Z,37.83
2022-11-14T15:53:07.139Z,47.00
2022-11-14T15:54:32.071Z,40.45
2022-11-14T15:55:54.234Z,34.63
2022-11-14T15:57:18.089Z,37.17
2022-11-14T15:58:43.130Z,37.25
2022-11-14T16:00:13.417Z,36.75
2022-11-14T16:01:35.568Z,38.78
2022-11-14T16:02:58.660Z,42.78
2022-11-14T16:04:21.361Z,39.25
2022-11-14T16:05:46.406Z,39.72
2022-11-14T16:07:11.351Z,37.40
2022-11-14T16:08:33.899Z,41.53
2022-11-14T16:09:56.430Z,37.13
2022-11-14T16:11:18.915Z,39.95
2022-11-14T16:12:41.696Z,39.03
2022-11-14T16:14:05.705Z,40.95
2022-11-14T16:15:27.832Z,37.67
2022-11-14T16:16:50.123Z,40.72
2022-11-14T16:18:13.532Z,41.83
2022-11-14T16:19:37.811Z,41.15
2022-11-14T16:21:03.280Z,39.90
2022-11-14T16:22:25.331Z,46.17
2022-11-14T16:23:47.671Z,44.70
2022-11-14T16:25:16.992Z,43.88
2022-11-14T16:26:39.884Z,40.42
2022-11-14T16:28:02.602Z,37.85
2022-11-14T16:29:25.323Z,43.22
2022-11-14T16:30:47.713Z,46.55
2022-11-14T16:32:11.928Z,47.47
2022-11-14T16:33:34.242Z,53.63
2022-11-14T16:34:56.469Z,47.80
2022-11-14T16:36:22.661Z,40.15
2022-11-14T16:37:45.005Z,33.97
2022-11-14T16:39:11.680Z,34.17
2022-11-14T16:40:34.193Z,41.75
2022-11-14T16:42:01.896Z,37.63
2022-11-14T16:43:26.031Z,36.08
2022-11-14T16:44:50.773Z,35.22
2022-11-14T16:46:14.380Z,38.38
2022-11-14T16:47:38.797Z,36.67
2022-11-14T16:49:01.170Z,40.35
2022-11-14T16:50:23.251Z,46.10
2022-11-14T16:51:49.965Z,51.60
2022-11-14T16:53:12.531Z,47.33
2022-11-14T16:54:35.125Z,51.22
2022-11-14T16:55:57.811Z,50.42
2022-11-14T16:57:19.905Z,51.30
2022-11-14T16:58:42.414Z,51.25
2022-11-14T17:00:05.748Z,53.15
2022-11-14T17:01:28.158Z,52.42
2022-11-14T17:02:50.260Z,60.15
2022-11-14T17:04:12.821Z,53.72
2022-11-14T17:05:35.421Z,57.42
2022-11-14T17:06:59.722Z,57.42
2022-11-14T17:08:21.833Z,59.92
2022-11-14T17:09:44.783Z,61.97
2022-11-14T17:11:09.909Z,62.53
2022-11-14T17:12:32.820Z,57.38
2022-11-14T17:13:56.375Z,64.28
2022-11-14T17:15:19.288Z,63.72
2022-11-14T17:16:41.537Z,62.67
2022-11-14T17:18:04.492Z,62.20
2022-11-14T17:19:27.142Z,62.33
2022-11-14T17:20:49.421Z,59.20
2022-11-14T17:22:14.259Z,59.50
2022-11-14T17:23:36.879Z,60.80
2022-11-14T17:24:59.564Z,61.13
2022-11-14T17:26:21.718Z,59.15
2022-11-14T17:27:44.244Z,60.42
2022-11-14T17:29:13.056Z,62.90
2022-11-14T17:30:35.260Z,56.58
2022-11-14T17:31:57.530Z,58.42
2022-11-14T17:33:19.891Z,56.35
2022-11-14T17:34:42.200Z,53.70
2022-11-14T17:36:06.018Z,52.30
2022-11-14T17:37:30.470Z,56.35
2022-11-14T17:38:52.819Z,52.38
2022-11-14T17:40:15.808Z,57.67
2022-11-14T17:41:38.903Z,54.63
2022-11-14T17:43:01.274Z,54.80
2022-11-14T17:44:23.717Z,64.40
2022-11-14T17:45:56.514Z,59.95
2022-11-14T17:47:19.750Z,62.50
2022-11-14T17:48:43.141Z,65.78
2022-11-14T17:50:07.162Z,86.93
2022-11-14T17:51:29.801Z,127.63
2022-11-14T17:52:53.796Z,112.72
2022-11-14T17:54:16.394Z,114.22
2022-11-14T17:55:38.943Z,87.82
2022-11-14T17:57:01.713Z,75.32
2022-11-14T17:58:28.501Z,63.83
2022-11-14T17:59:50.738Z,202.18
2022-11-14T18:01:16.703Z,400.85
2022-11-14T18:02:39.609Z,81.85
2022-11-14T18:04:06.107Z,191.90
2022-11-14T18:05:29.359Z,510.35
2022-11-14T18:06:51.767Z,582.97
2022-11-14T18:08:15.612Z,338.83
2022-11-14T18:09:38.313Z,87.43
2022-11-14T18:11:02.031Z,88.32
2022-11-14T18:12:24.479Z,126.65